Time;durP1;ratioP1;P1;durP2;ratioP2;P2;SDS_P1;SDS_P2;PMS_P1;PMS_P2;Temp;Humidity;BMP_temperature;BMP_pressure;BME280_temperature;BME280_humidity;BME280_pressure;Samples;Min_cycle;Max_cycle;Signal;HPM_P1;HPM_P2
2024/04/22 00:02:06;;;;;;;3.03;1.85;;;3.50;77.20;;;;;;5471579;26;19994;-74
2024/04/22 00:04:51;;;;;;;4.03;2.08;;;3.40;77.20;;;;;;5471030;26;20010;-75
2024/04/22 00:07:37;;;;;;;3.40;1.75;;;3.40;77.30;;;;;;5464522;26;20047;-74
2024/04/22 00:10:24;;;;;;;3.40;2.10;;;3.40;77.50;;;;;;5484869;26;20014;-75
2024/04/22 00:13:09;;;;;;;2.65;2.00;;;3.40;77.50;;;;;;5475380;26;20080;-74
2024/04/22 00:15:56;;;;;;;4.03;2.20;;;3.40;77.70;;;;;;5447221;26;20003;-73
2024/04/22 00:18:42;;;;;;;4.80;2.15;;;3.30;77.80;;;;;;5463322;26;20410;-74
2024/04/22 00:21:28;;;;;;;4.38;1.90;;;3.30;77.90;;;;;;5462447;26;20983;-74
2024/04/22 00:24:14;;;;;;;4.80;2.50;;;3.30;78.10;;;;;;5480916;26;20435;-74
2024/04/22 00:27:00;;;;;;;4.93;2.10;;;3.30;78.20;;;;;;5482640;26;20005;-74
2024/04/22 00:29:46;;;;;;;5.75;2.42;;;3.30;78.40;;;;;;5492046;26;20478;-74
2024/04/22 00:32:32;;;;;;;3.55;2.03;;;3.20;78.40;;;;;;5478339;26;20009;-72
2024/04/22 00:35:18;;;;;;;4.38;2.08;;;3.20;78.70;;;;;;5473514;26;19998;-72
2024/04/22 00:38:04;;;;;;;2.83;1.88;;;3.20;78.80;;;;;;5477887;26;20025;-72
2024/04/22 00:40:50;;;;;;;3.78;1.95;;;3.20;78.90;;;;;;5481845;26;19998;-72
2024/04/22 00:43:36;;;;;;;3.30;2.08;;;3.30;79.00;;;;;;5479362;26;20006;-72
2024/04/22 00:46:22;;;;;;;5.88;2.25;;;3.20;79.00;;;;;;5473610;26;20010;-72
2024/04/22 00:49:08;;;;;;;4.82;2.22;;;3.20;79.20;;;;;;5466567;26;20010;-71
2024/04/22 00:51:54;;;;;;;4.28;2.20;;;3.20;79.30;;;;;;5482046;26;19998;-71
2024/04/22 00:54:40;;;;;;;3.60;1.83;;;3.20;79.40;;;;;;5469157;26;20400;-72
2024/04/22 00:57:26;;;;;;;4.43;2.45;;;3.10;79.50;;;;;;5456857;26;20014;-72
2024/04/22 01:00:12;;;;;;;3.22;1.90;;;3.10;79.60;;;;;;5477993;26;19994;-72
2024/04/22 01:02:59;;;;;;;4.10;2.03;;;3.10;79.80;;;;;;5472615;26;20483;-71
2024/04/22 01:05:45;;;;;;;4.15;2.30;;;3.10;79.90;;;;;;5470712;26;20403;-71
2024/04/22 01:08:31;;;;;;;3.72;2.13;;;3.10;80.10;;;;;;5482719;26;20517;-70
2024/04/22 01:11:17;;;;;;;6.35;2.78;;;3.10;80.20;;;;;;5483108;26;20017;-71
2024/04/22 01:14:03;;;;;;;4.10;2.33;;;3.10;80.30;;;;;;5459014;26;20442;-71
2024/04/22 01:16:55;;;;;;;4.88;2.00;;;3.10;80.50;;;;;;5448968;26;20054;-71
2024/04/22 01:19:41;;;;;;;5.53;2.50;;;3.10;80.80;;;;;;5456988;26;20009;-71
2024/04/22 01:22:27;;;;;;;3.20;2.08;;;3.10;80.90;;;;;;5484277;26;19990;-71
2024/04/22 01:25:16;;;;;;;3.10;2.63;;;3.10;81.00;;;;;;5452634;26;19994;-71
2024/04/22 01:28:04;;;;;;;5.50;2.35;;;3.10;81.20;;;;;;5484057;26;19994;-70
2024/04/22 01:30:50;;;;;;;5.05;2.63;;;3.10;81.40;;;;;;5468142;26;20069;-70
2024/04/22 01:33:36;;;;;;;4.00;2.38;;;3.10;81.50;;;;;;5483113;26;19994;-70
2024/04/22 01:36:22;;;;;;;4.15;2.47;;;3.10;81.60;;;;;;5450161;26;19995;-70
2024/04/22 01:39:11;;;;;;;4.20;2.25;;;3.00;81.70;;;;;;5478011;26;20469;-71
2024/04/22 01:41:57;;;;;;;4.75;2.20;;;3.10;82.10;;;;;;5484950;26;20461;-70
2024/04/22 01:44:43;;;;;;;3.63;2.22;;;3.00;82.10;;;;;;5484548;26;20361;-70
2024/04/22 01:47:29;;;;;;;5.35;2.13;;;3.10;82.30;;;;;;5472571;26;20067;-71
2024/04/22 01:50:15;;;;;;;4.28;2.55;;;3.00;82.70;;;;;;5481532;26;20039;-71
2024/04/22 01:53:01;;;;;;;4.38;2.38;;;3.00;82.70;;;;;;5469504;26;20474;-73
2024/04/22 01:55:47;;;;;;;4.40;2.63;;;3.00;82.80;;;;;;5480917;26;20005;-73
2024/04/22 01:58:33;;;;;;;5.07;3.33;;;3.00;82.90;;;;;;5445605;26;20002;-73
2024/04/22 02:01:19;;;;;;;4.85;2.47;;;3.00;83.10;;;;;;5451537;26;20038;-73
2024/04/22 02:04:05;;;;;;;4.18;2.65;;;3.00;83.30;;;;;;5441252;26;20075;-73
2024/04/22 02:06:51;;;;;;;5.72;3.17;;;3.00;83.30;;;;;;5470624;26;20009;-71
2024/04/22 02:09:37;;;;;;;4.35;2.90;;;3.00;83.50;;;;;;5460788;26;20034;-71
2024/04/22 02:12:22;;;;;;;4.88;2.83;;;3.00;83.60;;;;;;5469176;26;20012;-71
2024/04/22 02:15:08;;;;;;;6.40;3.47;;;3.00;83.60;;;;;;5486826;26;20017;-69
2024/04/22 02:17:55;;;;;;;5.00;2.85;;;3.00;83.80;;;;;;5486193;26;20052;-70
2024/04/22 02:20:41;;;;;;;7.03;3.35;;;3.00;83.90;;;;;;5468060;26;20419;-71
2024/04/22 02:23:27;;;;;;;5.03;3.38;;;2.90;84.00;;;;;;5459801;26;20526;-71
2024/04/22 02:26:13;;;;;;;7.93;3.40;;;2.90;84.10;;;;;;5455658;26;19995;-72
2024/04/22 02:28:59;;;;;;;7.82;3.60;;;2.90;84.10;;;;;;5471906;26;20391;-74
2024/04/22 02:31:45;;;;;;;7.88;3.42;;;3.00;84.30;;;;;;5459786;26;19998;-74
2024/04/22 02:34:31;;;;;;;6.10;3.47;;;3.00;84.40;;;;;;5483195;26;19990;-73
2024/04/22 02:37:17;;;;;;;4.50;3.13;;;3.00;84.50;;;;;;5481944;26;20013;-74
2024/04/22 02:40:03;;;;;;;5.80;3.13;;;2.90;84.60;;;;;;5480070;26;19994;-73
2024/04/22 02:42:49;;;;;;;4.78;2.95;;;2.90;84.60;;;;;;5452389;26;20009;-74
2024/04/22 02:45:35;;;;;;;3.67;2.42;;;2.90;84.70;;;;;;5461859;26;20070;-73
2024/04/22 02:48:21;;;;;;;7.05;2.72;;;2.80;84.70;;;;;;5466147;26;20034;-74
2024/04/22 02:51:07;;;;;;;7.30;3.00;;;2.80;84.90;;;;;;5477932;26;20009;-74
2024/04/22 02:53:53;;;;;;;4.95;2.53;;;2.80;85.00;;;;;;5453270;26;19999;-74
2024/04/22 02:56:38;;;;;;;5.07;3.15;;;2.90;85.10;;;;;;5449971;26;19994;-73
2024/04/22 02:59:24;;;;;;;6.40;3.50;;;2.90;85.30;;;;;;5459207;26;20002;-73
2024/04/22 03:02:10;;;;;;;6.25;2.65;;;2.90;85.30;;;;;;5472711;26;20017;-73
2024/04/22 03:04:56;;;;;;;5.13;2.63;;;2.90;85.30;;;;;;5462136;26;20009;-73
2024/04/22 03:07:43;;;;;;;6.78;2.65;;;2.90;85.30;;;;;;5487049;26;19994;-73
2024/04/22 03:10:29;;;;;;;4.35;2.70;;;2.90;85.50;;;;;;5481379;26;20002;-73
2024/04/22 03:13:14;;;;;;;6.03;2.83;;;2.90;85.60;;;;;;5475933;26;19994;-73
2024/04/22 03:16:00;;;;;;;6.47;2.85;;;3.00;85.80;;;;;;5474923;26;20013;-73
2024/04/22 03:18:46;;;;;;;4.75;2.50;;;3.00;86.00;;;;;;5484472;26;20012;-73
2024/04/22 03:21:32;;;;;;;8.52;3.30;;;3.00;86.10;;;;;;5482986;26;20338;-72
2024/04/22 03:24:18;;;;;;;4.13;2.58;;;3.10;86.30;;;;;;5469060;26;20047;-73
2024/04/22 03:27:04;;;;;;;5.47;3.40;;;3.10;86.30;;;;;;5477125;26;20446;-69
2024/04/22 03:29:50;;;;;;;5.18;3.20;;;3.20;86.40;;;;;;5485020;26;20396;-69
2024/04/22 03:32:37;;;;;;;4.18;2.63;;;3.20;86.50;;;;;;5475747;26;20384;-69
2024/04/22 03:35:23;;;;;;;6.03;3.03;;;3.20;86.50;;;;;;5479353;26;20474;-69
2024/04/22 03:38:09;;;;;;;5.28;2.67;;;3.30;86.50;;;;;;5466099;26;20014;-69
2024/04/22 03:40:55;;;;;;;5.30;2.83;;;3.30;86.50;;;;;;5477910;26;19990;-73
2024/04/22 03:43:41;;;;;;;5.18;2.83;;;3.30;86.50;;;;;;5446795;26;20027;-74
2024/04/22 03:52:36;;;;;;;4.03;3.00;;;3.20;86.30;;;;;;5449558;26;20064;-74
2024/04/22 03:55:22;;;;;;;5.00;2.75;;;3.20;86.40;;;;;;5454574;26;23377;-74
2024/04/22 03:58:08;;;;;;;5.00;2.78;;;3.30;86.40;;;;;;5469609;26;20462;-74
2024/04/22 04:00:54;;;;;;;7.65;3.28;;;3.20;86.40;;;;;;5449647;26;20002;-73
2024/04/22 04:03:40;;;;;;;9.00;3.85;;;3.20;86.50;;;;;;5479162;26;19998;-74
2024/04/22 04:06:29;;;;;;;6.03;3.72;;;3.20;86.60;;;;;;5474916;26;20637;-74
2024/04/22 04:09:15;;;;;;;5.05;3.08;;;3.20;86.70;;;;;;5453640;26;20015;-74
2024/04/22 04:12:00;;;;;;;6.53;4.15;;;3.10;86.60;;;;;;5485414;26;20006;-71
2024/04/22 04:14:46;;;;;;;7.72;3.67;;;3.10;86.50;;;;;;5468644;26;20017;-71
2024/04/22 04:17:32;;;;;;;8.00;3.42;;;3.10;86.70;;;;;;5483682;26;19990;-75
2024/04/22 04:20:18;;;;;;;6.35;3.47;;;3.10;86.70;;;;;;5465997;26;20013;-77
2024/04/22 04:23:04;;;;;;;4.85;3.15;;;3.10;86.80;;;;;;5482330;26;20001;-78
2024/04/22 04:25:50;;;;;;;6.80;3.25;;;3.10;86.90;;;;;;5480275;26;20442;-77
2024/04/22 04:28:36;;;;;;;6.68;3.47;;;3.10;87.00;;;;;;5478535;26;20451;-78
2024/04/22 04:31:22;;;;;;;5.82;3.67;;;3.10;87.00;;;;;;5458791;26;20320;-78
2024/04/22 04:34:08;;;;;;;5.93;3.10;;;3.10;87.00;;;;;;5423719;26;20343;-77
2024/04/22 04:36:54;;;;;;;5.90;3.03;;;3.10;87.10;;;;;;5437550;26;20002;-78
2024/04/22 04:39:40;;;;;;;4.32;3.00;;;3.10;87.30;;;;;;5488696;26;20007;-78
2024/04/22 04:42:26;;;;;;;6.70;3.05;;;3.10;87.40;;;;;;5494924;26;19990;-78
2024/04/22 04:45:12;;;;;;;4.38;2.95;;;3.20;87.50;;;;;;5472765;26;20108;-79
2024/04/22 04:47:58;;;;;;;6.35;3.30;;;3.20;87.50;;;;;;5498148;26;20392;-79
2024/04/22 04:50:44;;;;;;;6.43;3.38;;;3.20;87.70;;;;;;5468120;26;19999;-75
2024/04/22 04:53:31;;;;;;;4.43;2.85;;;3.20;87.70;;;;;;5464441;26;20380;-76
2024/04/22 04:56:17;;;;;;;3.78;2.20;;;3.20;87.70;;;;;;5480672;26;20491;-76
2024/04/22 04:59:02;;;;;;;4.85;2.85;;;3.30;87.70;;;;;;5445200;26;20527;-76
2024/04/22 05:01:48;;;;;;;7.35;3.80;;;3.30;87.70;;;;;;5456671;26;20006;-75
2024/04/22 05:04:34;;;;;;;4.80;2.60;;;3.30;87.70;;;;;;5461348;26;20002;-75
2024/04/22 05:07:20;;;;;;;5.82;3.17;;;3.40;87.80;;;;;;5484547;26;20003;-76
2024/04/22 05:10:06;;;;;;;4.05;2.70;;;3.40;87.80;;;;;;5473648;26;20059;-76
2024/04/22 05:12:52;;;;;;;4.78;2.75;;;3.40;87.80;;;;;;5453743;26;20372;-79
2024/04/22 05:15:38;;;;;;;4.60;3.17;;;3.50;87.80;;;;;;5451833;26;20479;-73
2024/04/22 05:18:25;;;;;;;8.20;3.03;;;3.50;87.70;;;;;;5427263;26;20463;-77
2024/04/22 05:21:11;;;;;;;5.78;3.08;;;3.60;87.70;;;;;;5452940;26;19994;-80
2024/04/22 05:24:08;;;;;;;5.82;3.40;;;3.60;87.80;;;;;;5452532;26;19995;-82
2024/04/22 05:26:54;;;;;;;5.38;3.03;;;3.70;87.80;;;;;;5459909;26;20100;-80
2024/04/22 05:29:40;;;;;;;4.85;3.00;;;3.60;87.60;;;;;;5487769;26;20005;-80
2024/04/22 05:32:26;;;;;;;5.38;3.40;;;3.60;87.50;;;;;;5470012;26;20264;-80
2024/04/22 05:38:17;;;;;;;3.80;2.78;;;3.80;87.60;;;;;;5468580;26;19998;-79
2024/04/22 05:41:03;;;;;;;5.22;2.80;;;3.90;87.60;;;;;;5456453;26;20010;-80
2024/04/22 05:43:49;;;;;;;4.75;3.25;;;3.90;87.60;;;;;;5448811;26;20036;-81
2024/04/22 05:46:35;;;;;;;5.10;3.33;;;4.00;87.50;;;;;;5487851;26;20000;-79
2024/04/22 05:49:21;;;;;;;5.47;3.20;;;4.10;87.30;;;;;;5484519;26;19994;-79
2024/04/22 05:52:07;;;;;;;5.63;2.92;;;4.10;87.10;;;;;;5487988;26;19990;-79
2024/04/22 05:54:53;;;;;;;6.32;2.92;;;4.10;86.80;;;;;;5474679;26;19999;-79
2024/04/22 05:57:40;;;;;;;3.72;2.40;;;4.20;86.80;;;;;;5453601;26;20042;-78
2024/04/22 06:00:26;;;;;;;4.38;2.45;;;4.20;86.60;;;;;;5457726;26;20003;-79
2024/04/22 06:03:12;;;;;;;4.00;2.50;;;4.30;86.50;;;;;;5470118;26;20024;-79
2024/04/22 06:05:58;;;;;;;6.53;3.65;;;4.40;86.30;;;;;;5471099;26;20017;-79
2024/04/22 06:08:44;;;;;;;6.15;3.13;;;4.30;86.20;;;;;;5484340;26;20039;-80
2024/04/22 06:11:30;;;;;;;7.47;3.50;;;4.40;86.10;;;;;;5457481;26;20340;-80
2024/04/22 06:14:16;;;;;;;4.47;2.88;;;4.40;85.80;;;;;;5453815;26;19999;-80
2024/04/22 06:17:02;;;;;;;3.75;2.45;;;4.50;85.70;;;;;;5477328;26;19994;-84
2024/04/22 06:19:48;;;;;;;4.75;2.55;;;4.50;85.30;;;;;;5474968;26;20005;-83
2024/04/22 06:22:35;;;;;;;4.82;3.22;;;4.60;85.30;;;;;;5456587;26;19998;-84
2024/04/22 06:25:21;;;;;;;5.57;2.83;;;4.50;85.20;;;;;;5470239;26;19998;-82
2024/04/22 06:28:07;;;;;;;5.60;2.90;;;4.60;85.20;;;;;;5486058;26;20510;-82
2024/04/22 06:30:53;;;;;;;5.53;2.90;;;4.60;85.00;;;;;;5477201;26;19991;-80
2024/04/22 06:33:42;;;;;;;3.58;2.22;;;4.70;84.90;;;;;;5445437;26;20009;-80
2024/04/22 06:36:28;;;;;;;5.20;2.47;;;4.70;84.60;;;;;;5464418;26;19999;-79
2024/04/22 06:39:14;;;;;;;5.55;2.70;;;4.80;84.40;;;;;;5482229;26;20006;-79
2024/04/22 06:42:00;;;;;;;3.88;2.47;;;4.90;84.30;;;;;;5442951;26;20341;-79
2024/04/22 06:44:46;;;;;;;3.25;2.10;;;4.90;84.10;;;;;;5466197;26;19998;-79
2024/04/22 06:47:32;;;;;;;3.60;2.65;;;4.90;83.80;;;;;;5443560;26;20388;-79
2024/04/22 06:50:18;;;;;;;4.40;2.30;;;5.00;83.80;;;;;;5484746;26;20009;-80
2024/04/22 06:53:04;;;;;;;8.25;3.15;;;5.00;83.60;;;;;;5466327;26;20027;-78
2024/04/22 06:55:50;;;;;;;5.95;3.38;;;5.00;83.20;;;;;;5449158;26;20001;-77
2024/04/22 06:58:36;;;;;;;4.88;2.65;;;5.10;83.40;;;;;;5474972;26;20005;-77
2024/04/22 07:01:22;;;;;;;3.70;2.47;;;5.20;83.70;;;;;;5483753;26;20005;-78
2024/04/22 07:04:08;;;;;;;7.40;2.97;;;5.30;83.70;;;;;;5479933;26;20502;-78
2024/04/22 07:06:54;;;;;;;5.63;2.75;;;5.30;83.60;;;;;;5485993;26;20341;-80
2024/04/22 07:09:40;;;;;;;2.90;2.10;;;5.50;83.70;;;;;;5473122;26;20548;-69
2024/04/22 07:12:26;;;;;;;6.05;2.67;;;5.50;83.70;;;;;;5470357;26;20028;-70
2024/04/22 07:15:13;;;;;;;3.55;2.10;;;5.60;83.70;;;;;;5446326;26;20006;-70
2024/04/22 07:17:59;;;;;;;3.90;2.53;;;5.70;83.10;;;;;;5481019;26;20067;-70
2024/04/22 07:20:45;;;;;;;3.40;2.30;;;5.80;83.20;;;;;;5481459;26;20038;-69
2024/04/22 07:23:31;;;;;;;3.22;2.15;;;6.00;82.90;;;;;;5480108;26;20330;-72
2024/04/22 07:26:17;;;;;;;3.85;2.40;;;6.10;82.90;;;;;;5462804;26;19994;-71
2024/04/22 07:29:03;;;;;;;4.72;2.50;;;6.30;82.50;;;;;;5449929;26;20034;-67
2024/04/22 07:31:50;;;;;;;5.22;2.92;;;6.30;81.90;;;;;;5466472;26;19998;-75
2024/04/22 07:34:36;;;;;;;4.25;2.35;;;6.40;82.20;;;;;;5477604;26;19998;-76
2024/04/22 07:37:29;;;;;;;3.80;2.50;;;6.50;82.30;;;;;;5448349;26;20006;-76
2024/04/22 07:40:19;;;;;;;2.40;2.03;;;6.60;82.20;;;;;;5471352;26;20009;-76
2024/04/22 07:43:04;;;;;;;5.80;2.50;;;6.80;82.10;;;;;;5493698;26;20001;-76
2024/04/22 07:45:50;;;;;;;4.57;2.33;;;6.90;81.70;;;;;;5472998;26;19998;-75
2024/04/22 07:48:36;;;;;;;2.90;2.00;;;7.00;81.50;;;;;;5458570;26;20058;-76
2024/04/22 07:51:22;;;;;;;3.53;2.22;;;7.00;80.40;;;;;;5483480;26;20081;-75
2024/04/22 07:54:08;;;;;;;2.53;2.15;;;7.00;80.60;;;;;;5477324;26;19991;-73
2024/04/22 07:56:55;;;;;;;3.38;2.00;;;7.00;80.10;;;;;;5469447;26;20005;-75
2024/04/22 07:59:41;;;;;;;3.08;2.30;;;7.10;80.40;;;;;;5486157;26;20001;-75
2024/04/22 08:02:27;;;;;;;2.50;2.10;;;7.20;80.20;;;;;;5428247;26;19999;-75
2024/04/22 08:05:14;;;;;;;3.85;2.53;;;7.30;80.20;;;;;;5466371;26;19994;-75
2024/04/22 08:08:00;;;;;;;4.78;3.25;;;7.40;80.30;;;;;;5472049;26;20009;-74
2024/04/22 08:10:46;;;;;;;3.08;2.05;;;7.60;80.30;;;;;;5459340;26;19998;-75
2024/04/22 08:13:32;;;;;;;3.20;2.17;;;7.70;80.30;;;;;;5453793;26;20398;-74
2024/04/22 08:16:18;;;;;;;2.92;2.22;;;7.80;79.10;;;;;;5444634;25;20003;-75
2024/04/22 08:19:04;;;;;;;3.35;2.17;;;7.80;78.20;;;;;;5417656;26;19999;-75
2024/04/22 08:21:50;;;;;;;5.15;2.55;;;7.90;78.60;;;;;;5421248;26;20017;-78
2024/04/22 08:24:36;;;;;;;2.53;1.65;;;7.90;78.20;;;;;;5441779;26;20059;-70
2024/04/22 08:27:22;;;;;;;2.83;1.75;;;7.90;77.30;;;;;;5419730;26;20141;-71
2024/04/22 08:30:08;;;;;;;2.63;1.67;;;8.00;77.40;;;;;;5460236;26;20334;-80
2024/04/22 08:32:55;;;;;;;3.72;2.00;;;8.10;76.80;;;;;;5474205;26;20069;-79
2024/04/22 08:35:47;;;;;;;3.08;1.90;;;8.00;76.90;;;;;;5434290;26;20438;-76
2024/04/22 08:38:33;;;;;;;2.08;1.67;;;8.00;76.10;;;;;;5439807;26;20061;-69
2024/04/22 08:41:21;;;;;;;5.75;2.60;;;8.00;76.60;;;;;;5442785;26;20000;-73
2024/04/22 08:44:08;;;;;;;2.40;1.60;;;8.10;76.70;;;;;;5459617;26;20013;-73
2024/04/22 08:46:54;;;;;;;3.10;1.80;;;8.30;75.90;;;;;;5411523;26;19991;-73
2024/04/22 08:49:40;;;;;;;2.80;1.67;;;8.20;75.40;;;;;;5448797;26;20474;-73
2024/04/22 08:52:26;;;;;;;2.10;1.63;;;8.30;75.80;;;;;;5432005;26;20327;-75
2024/04/22 08:55:13;;;;;;;3.95;1.60;;;8.40;75.40;;;;;;5438120;26;20010;-73
2024/04/22 08:57:59;;;;;;;2.20;1.60;;;8.40;75.10;;;;;;5442490;26;19999;-74
2024/04/22 09:00:45;;;;;;;1.88;1.25;;;8.50;74.60;;;;;;5439413;26;20338;-74
2024/04/22 09:03:31;;;;;;;4.22;2.25;;;8.50;73.10;;;;;;5436276;26;20541;-69
2024/04/22 09:06:17;;;;;;;2.08;1.50;;;8.40;73.20;;;;;;5449455;26;20469;-73
2024/04/22 09:09:08;;;;;;;2.42;1.65;;;8.40;73.90;;;;;;5449267;26;20013;-72
2024/04/22 09:11:54;;;;;;;2.53;1.88;;;8.40;73.10;;;;;;5468530;26;20071;-74
2024/04/22 09:14:40;;;;;;;3.72;1.75;;;8.50;73.60;;;;;;5423139;26;20006;-74
2024/04/22 09:17:26;;;;;;;3.45;1.80;;;8.50;73.80;;;;;;5465916;26;20049;-72
2024/04/22 09:20:23;;;;;;;2.63;1.70;;;8.60;73.30;;;;;;5480332;26;19994;-72
2024/04/22 09:23:08;;;;;;;5.80;2.00;;;8.70;73.90;;;;;;5476514;26;20002;-72
2024/04/22 09:25:55;;;;;;;3.20;1.98;;;8.80;74.40;;;;;;5473979;26;19998;-73
2024/04/22 09:28:44;;;;;;;3.70;1.83;;;8.90;74.20;;;;;;5467708;26;20075;-71
2024/04/22 09:31:34;;;;;;;2.13;1.58;;;8.90;73.70;;;;;;5482447;26;20042;-71
2024/04/22 09:34:22;;;;;;;2.60;1.85;;;8.80;73.80;;;;;;5469017;26;19999;-73
2024/04/22 09:37:09;;;;;;;2.83;1.70;;;8.60;73.70;;;;;;5471857;26;20070;-73
2024/04/22 09:39:57;;;;;;;2.72;2.00;;;8.60;73.60;;;;;;5467921;26;20002;-72
2024/04/22 09:42:46;;;;;;;3.85;1.70;;;8.40;74.50;;;;;;5475123;26;20505;-73
2024/04/22 09:45:33;;;;;;;2.50;1.77;;;8.40;74.60;;;;;;5479728;26;20006;-74
2024/04/22 09:48:19;;;;;;;2.00;1.58;;;8.30;75.00;;;;;;5471452;26;20017;-76
2024/04/22 09:51:08;;;;;;;2.45;2.00;;;8.30;75.40;;;;;;5468897;26;20104;-75
2024/04/22 09:53:55;;;;;;;3.13;2.25;;;8.20;75.60;;;;;;5443366;26;20112;-72
2024/04/22 09:56:44;;;;;;;4.45;2.10;;;8.10;75.90;;;;;;5470764;26;21652;-72
2024/04/22 09:59:30;;;;;;;4.55;2.50;;;8.00;76.60;;;;;;5480098;26;20005;-73
2024/04/22 10:02:17;;;;;;;4.57;1.90;;;7.90;77.40;;;;;;5471071;26;20381;-71
2024/04/22 10:05:09;;;;;;;2.80;2.05;;;7.90;78.20;;;;;;5467099;26;19995;-72
2024/04/22 10:07:58;;;;;;;3.10;2.00;;;7.90;78.80;;;;;;5456411;26;20075;-72
2024/04/22 10:10:44;;;;;;;3.75;2.72;;;8.00;79.20;;;;;;5459761;26;20001;-72
2024/04/22 10:13:29;;;;;;;2.65;1.90;;;8.20;79.70;;;;;;5487991;26;19987;-72
2024/04/22 10:16:15;;;;;;;4.43;2.67;;;8.40;79.70;;;;;;5481563;26;20327;-72
2024/04/22 10:19:01;;;;;;;3.67;2.20;;;8.40;79.80;;;;;;5470015;26;20446;-72
2024/04/22 10:21:51;;;;;;;3.65;2.17;;;8.60;79.90;;;;;;5468445;26;20013;-72
2024/04/22 10:24:38;;;;;;;2.47;1.90;;;8.80;79.60;;;;;;5437660;26;20002;-72
2024/04/22 10:27:24;;;;;;;2.78;1.70;;;9.00;79.30;;;;;;5456580;26;20465;-72
2024/04/22 10:30:10;;;;;;;2.42;1.75;;;9.10;79.30;;;;;;5436966;26;19998;-71
2024/04/22 10:32:56;;;;;;;2.58;1.88;;;9.20;78.90;;;;;;5451796;26;20021;-72
2024/04/22 10:35:42;;;;;;;2.85;1.98;;;9.30;78.30;;;;;;5432955;26;20074;-72
2024/04/22 10:38:28;;;;;;;2.80;1.80;;;9.30;78.10;;;;;;5455556;26;20009;-72
2024/04/22 10:41:14;;;;;;;3.40;1.83;;;9.30;78.00;;;;;;5477126;26;19994;-72
2024/04/22 10:44:01;;;;;;;3.72;2.30;;;9.30;77.30;;;;;;5448563;26;20070;-72
2024/04/22 10:46:46;;;;;;;3.60;2.33;;;9.10;77.40;;;;;;5484896;26;20004;-72
2024/04/22 10:49:34;;;;;;;3.85;2.47;;;9.00;78.20;;;;;;5483033;26;20021;-73
2024/04/22 10:52:20;;;;;;;5.85;2.35;;;8.80;79.70;;;;;;5454460;26;20010;-72
2024/04/22 10:55:07;;;;;;;4.93;2.50;;;8.60;80.30;;;;;;5468175;26;20353;-75
2024/04/22 10:57:53;;;;;;;3.70;2.42;;;8.40;81.60;;;;;;5472507;26;19998;-73
2024/04/22 11:00:40;;;;;;;3.78;2.17;;;8.30;83.00;;;;;;5481236;26;20017;-73
2024/04/22 11:03:27;;;;;;;3.95;2.30;;;8.40;83.00;;;;;;5464879;26;20204;-73
2024/04/22 11:06:13;;;;;;;3.47;2.38;;;8.40;83.40;;;;;;5475501;26;20010;-72
2024/04/22 11:09:00;;;;;;;5.10;2.72;;;8.40;84.30;;;;;;5481724;26;20002;-72
2024/04/22 11:11:46;;;;;;;5.30;3.47;;;8.40;83.70;;;;;;5425434;26;19999;-72
2024/04/22 11:14:33;;;;;;;4.30;2.22;;;8.40;83.40;;;;;;5455668;26;20038;-71
2024/04/22 11:17:25;;;;;;;4.15;2.42;;;8.50;83.70;;;;;;5463029;26;19994;-72
2024/04/22 11:20:11;;;;;;;3.28;2.05;;;8.60;83.50;;;;;;5474807;26;20009;-71
2024/04/22 11:22:58;;;;;;;3.72;2.13;;;8.70;83.60;;;;;;5494646;26;20018;-71
2024/04/22 11:25:44;;;;;;;3.38;2.47;;;8.80;83.70;;;;;;5437922;26;19995;-74
2024/04/22 11:28:30;;;;;;;3.28;2.33;;;8.80;83.30;;;;;;5464516;26;20034;-71
2024/04/22 11:31:16;;;;;;;4.25;2.42;;;8.90;83.20;;;;;;5485063;26;20024;-71
2024/04/22 11:34:02;;;;;;;5.30;2.40;;;8.80;82.80;;;;;;5456030;26;20006;-73
2024/04/22 11:36:58;;;;;;;3.53;1.90;;;8.60;82.40;;;;;;5447823;26;20070;-75
2024/04/22 11:39:50;;;;;;;3.03;2.08;;;8.40;82.60;;;;;;5466899;26;20034;-76
2024/04/22 11:42:37;;;;;;;3.58;2.35;;;8.20;83.20;;;;;;5480379;26;20319;-75
2024/04/22 11:45:23;;;;;;;3.50;2.45;;;8.20;83.60;;;;;;5444127;26;20428;-74
2024/04/22 11:48:09;;;;;;;3.38;2.30;;;8.20;83.80;;;;;;5468939;26;20098;-74
2024/04/22 11:50:56;;;;;;;3.67;2.15;;;8.10;84.10;;;;;;5459565;26;20409;-73
2024/04/22 11:53:42;;;;;;;5.75;2.63;;;8.10;84.80;;;;;;5485480;26;20001;-73
2024/04/22 11:56:35;;;;;;;3.70;2.35;;;8.20;85.20;;;;;;5476366;26;19994;-72
2024/04/22 11:59:21;;;;;;;3.20;2.55;;;8.30;85.30;;;;;;5464109;26;19997;-72
2024/04/22 12:02:08;;;;;;;3.35;2.58;;;8.40;85.40;;;;;;5464771;26;20472;-71
2024/04/22 12:04:54;;;;;;;3.78;2.17;;;8.50;85.90;;;;;;5454953;26;20021;-71
2024/04/22 12:07:43;;;;;;;3.70;2.63;;;8.60;85.90;;;;;;5445359;26;20540;-72
2024/04/22 12:10:28;;;;;;;4.43;2.85;;;8.70;85.90;;;;;;5433259;26;19999;-71
2024/04/22 12:13:14;;;;;;;3.85;2.40;;;8.80;86.70;;;;;;5453255;26;20463;-71
2024/04/22 12:16:00;;;;;;;3.35;2.42;;;8.80;87.10;;;;;;5461143;26;20013;-71
2024/04/22 12:18:46;;;;;;;3.80;2.22;;;8.90;87.40;;;;;;5473612;26;20315;-71
2024/04/22 12:21:32;;;;;;;3.97;2.50;;;9.10;87.60;;;;;;5433641;26;20379;-71
2024/04/22 12:24:18;;;;;;;3.22;2.30;;;9.10;87.90;;;;;;5450615;26;20005;-72
2024/04/22 12:27:04;;;;;;;2.40;1.90;;;9.20;87.80;;;;;;5454299;26;20363;-71
2024/04/22 12:29:51;;;;;;;3.38;2.00;;;9.30;87.70;;;;;;5463821;26;20006;-71
2024/04/22 12:32:38;;;;;;;3.15;2.00;;;9.30;87.70;;;;;;5436856;26;20071;-71
2024/04/22 12:35:24;;;;;;;4.13;2.30;;;9.30;87.80;;;;;;5456959;26;20010;-71
2024/04/22 12:38:10;;;;;;;2.80;2.03;;;9.30;87.70;;;;;;5479291;26;19999;-71
2024/04/22 12:40:56;;;;;;;3.33;2.30;;;9.40;87.80;;;;;;5438886;26;20006;-71
2024/04/22 12:43:42;;;;;;;3.65;2.35;;;9.40;88.00;;;;;;5456706;26;20016;-71
2024/04/22 12:46:40;;;;;;;4.53;2.33;;;9.40;87.90;;;;;;5448016;26;20430;-71
2024/04/22 12:52:31;;;;;;;4.05;2.35;;;9.40;88.00;;;;;;5461761;26;20026;-70
2024/04/22 12:55:17;;;;;;;3.58;2.50;;;9.50;88.10;;;;;;5438719;26;19990;-72
2024/04/22 12:58:03;;;;;;;3.15;2.00;;;9.50;88.20;;;;;;5461686;26;20354;-71
2024/04/22 13:00:49;;;;;;;3.40;1.92;;;9.50;88.20;;;;;;5440031;26;20043;-71
2024/04/22 13:03:35;;;;;;;3.05;2.03;;;9.60;88.30;;;;;;5433357;26;20103;-71
2024/04/22 13:06:21;;;;;;;3.60;2.53;;;9.60;88.20;;;;;;5434963;26;20487;-71
2024/04/22 13:09:07;;;;;;;3.47;2.08;;;9.70;88.20;;;;;;5427520;26;19991;-72
2024/04/22 13:11:53;;;;;;;2.80;2.00;;;9.70;88.20;;;;;;5432949;26;20017;-71
2024/04/22 13:14:39;;;;;;;3.70;1.98;;;9.80;88.30;;;;;;5425811;26;20014;-72
2024/04/22 13:17:25;;;;;;;3.83;2.38;;;10.00;87.80;;;;;;5428170;26;19991;-71
2024/04/22 13:20:11;;;;;;;3.10;2.25;;;10.10;87.50;;;;;;5427192;26;20007;-71
2024/04/22 13:22:57;;;;;;;2.92;1.90;;;10.10;87.20;;;;;;5423658;26;19994;-71
2024/04/22 13:25:43;;;;;;;5.22;2.60;;;10.20;87.10;;;;;;5424347;26;20041;-71
2024/04/22 13:28:32;;;;;;;3.47;2.20;;;10.20;86.70;;;;;;5427390;26;19995;-73
2024/04/22 13:31:18;;;;;;;3.40;2.30;;;10.20;86.90;;;;;;5424266;26;19995;-72
2024/04/22 13:34:04;;;;;;;4.78;2.72;;;10.30;86.70;;;;;;5426900;26;20039;-71
2024/04/22 13:36:50;;;;;;;3.35;2.28;;;10.30;86.10;;;;;;5429817;26;20005;-72
2024/04/22 13:39:36;;;;;;;4.38;2.47;;;10.20;85.80;;;;;;5431246;26;20887;-73
2024/04/22 13:42:22;;;;;;;3.78;2.42;;;10.20;85.60;;;;;;5431041;26;19999;-73
2024/04/22 13:45:08;;;;;;;3.88;2.10;;;10.20;85.70;;;;;;5428149;26;20029;-73
2024/04/22 13:47:54;;;;;;;3.95;2.72;;;10.30;85.40;;;;;;5412327;26;20402;-72
2024/04/22 13:50:40;;;;;;;3.25;2.35;;;10.20;85.00;;;;;;5427061;26;19999;-73
2024/04/22 13:53:25;;;;;;;4.13;2.80;;;9.80;84.50;;;;;;5447827;26;20442;-73
2024/04/22 13:56:11;;;;;;;3.58;2.20;;;9.60;84.50;;;;;;5425211;26;20339;-76
2024/04/22 13:58:57;;;;;;;3.60;2.40;;;9.40;84.10;;;;;;5428535;26;20067;-75
2024/04/22 14:01:43;;;;;;;3.67;2.00;;;9.00;84.50;;;;;;5427445;26;20007;-75
2024/04/22 14:04:29;;;;;;;3.10;2.33;;;8.80;85.00;;;;;;5411039;26;20000;-73
2024/04/22 14:07:15;;;;;;;2.85;1.75;;;8.70;85.80;;;;;;5446489;26;20083;-73
2024/04/22 14:10:01;;;;;;;2.50;1.60;;;8.50;86.40;;;;;;5458862;26;19998;-72
2024/04/22 14:12:48;;;;;;;2.97;1.73;;;8.50;87.40;;;;;;5496251;26;20017;-72
2024/04/22 14:15:34;;;;;;;2.88;1.80;;;8.50;88.30;;;;;;5442817;26;20014;-72
2024/04/22 14:18:20;;;;;;;2.58;1.70;;;8.50;89.00;;;;;;5446672;26;20344;-71
2024/04/22 14:21:07;;;;;;;4.22;2.17;;;8.60;89.70;;;;;;5441149;26;20024;-72
2024/04/22 14:23:53;;;;;;;1.75;1.40;;;8.70;89.90;;;;;;5482748;26;19998;-71
2024/04/22 14:26:39;;;;;;;3.10;1.50;;;8.80;90.10;;;;;;5468612;26;19998;-72
2024/04/22 14:29:24;;;;;;;3.40;1.52;;;8.80;90.30;;;;;;5472071;26;20461;-71
2024/04/22 14:32:10;;;;;;;2.38;1.48;;;8.90;90.20;;;;;;5455501;26;20458;-72
2024/04/22 14:34:59;;;;;;;2.92;1.75;;;9.00;90.40;;;;;;5470155;26;20047;-72
2024/04/22 14:37:45;;;;;;;3.05;1.98;;;9.00;90.20;;;;;;5469919;26;19994;-72
2024/04/22 14:40:31;;;;;;;2.25;1.80;;;9.10;90.40;;;;;;5451239;26;20403;-71
2024/04/22 14:43:17;;;;;;;2.63;1.80;;;9.10;90.40;;;;;;5457483;26;20017;-72
2024/04/22 14:46:04;;;;;;;2.60;1.80;;;9.10;90.40;;;;;;5479774;26;20477;-72
2024/04/22 14:48:50;;;;;;;2.33;1.70;;;9.10;90.40;;;;;;5473935;26;19991;-71
2024/04/22 14:51:36;;;;;;;2.13;1.30;;;9.20;90.50;;;;;;5425639;26;19998;-71